Pagrindinis puslapis
METAR-TAF:

METAR-TAF

Oro uostai :

Russian Mission, Aliaska, Jungtinės Amerikos Valstijos

platuma: 61-46-30N, ilguma: 161-19-10W, Aukštis: 16 m

Dabartinis oras

Ataskaita buvo paskelbta 37 minutes, ne 18:56 UTC
Vėjas 6 kt iš Rytų
Temperatūra -17°C
Drėgmė 84%
Slėgis 1010 hPa
Matomumas: 16.1 km
Apsiniaukę ne aukštis 1400 ft

METAR: PARS 161856Z AUTO 09006KT 10SM OVC014 M17/M19 A2982 RMK AO2 SNE46 SLP101 P0000 T11721194 FZRANO $

Laikas: 10:33 (19:33 UTC)


TAF: trūkstamas

Orai ataskaitas ir orų prognozės (METAR, TAF).

turimą stotys yra geltonos ir raudonos taškus žemėlapyje.

Perkelti pele per norėdami pamatyti stoties vardą.

Tada spustelėkite, norėdami matyti oro stebėjimo ir prognozės.

Norėdami pakeisti žemėlapį: spustelėkite ant žalios mygtukų su juodo kryžiaus žemyn,; žalią mygtuką su brūkšneliu, jei norite nutolinti; arba žalių rodyklių gretimoms žemėlapius.


METAR-TAF: